04:41
Airports
History
Links
Donate
Help keep this website running!
PayPal
Bitcoin
This page is community maintained. The information is intended for PC simulator navigation or reference.
Always use approved charts for navigation.
UT92
Mineral Springs
Mineral Springs (UT92)
Moab, Utah, United States (84532)
4
Lat/Lng:38° 18' 55.65" N / 109° 45' 58.6" W
38.315457 / -109.766279
Elevation:3930'ft / 1198mMSL
ID / ICAO:UT92
Runways:1
Longest:14-32
Dirt 451m / 1,478ft
Nearby Weather03:53 GMT 2017-12-12
Nearby weather at KCNY, Canyonlands Field located 30.4 nautical miles from UT92
Altimeter: 30.48
Visibility: 10.0 statute miles
Wind: 4 knots (from 270°)
Temp: -4°c / 25°f
Humidity: 35.5%

METAR: KCNY 120353Z AUTO 27004KT 10SM CLR M04/M17 A3048 RMK AO2 SLP365 T10441172

(Powered by phpweather)
Nearby VORs <50NM
Nearby NDBs
Runway 14 / 32
Dimensions:450.6 x 7m 1478' x 23'ft
Surface:Dirt
Runway 14 [A]Runway 32 [B]
Heading:149°TH 329°TH
Lat:
Lng:
38° 19' 1.93"N
109° 46' 3.25"W
38° 18' 49.36"N
109° 45' 53.96"W
User Notes and Comments
38° 18' 55.65" N / 109° 45' 58.6" W
Distance To
Airport ID:
Nearby Airports
4 Needles Outpost 9.7 NM
UT59 S 172°
(R) Caveman Ranch 12.3 NM
UT68 NNE 27°
4 La Sal Junction 20.1 NM
70V E 91°
(R) Sky Ranch 20.9 NM
UT53 NE 55°
(U) Canyonlands Field 30.4 NM
KCNY ( WX ) N
(U) MONTICELLO 34.7 NM
U43 SE 138°
(R) Hite 44.6 NM
UT03 SW 228°
VFR Chart
Flight Planning at SkyVector.com